createdAt,value
2023-04-29T00:00:03.993Z,1053
2023-04-29T00:01:06.804Z,1056
2023-04-29T00:02:20.426Z,1056
2023-04-29T00:03:33.379Z,1060
2023-04-29T00:04:37.224Z,1060
2023-04-29T00:05:50.048Z,1064
2023-04-29T00:07:03.384Z,1065
2023-04-29T00:08:06.184Z,1065
2023-04-29T00:09:19.670Z,1065
2023-04-29T00:10:32.237Z,1070
2023-04-29T00:11:35.973Z,1072
2023-04-29T00:12:48.569Z,1073
2023-04-29T00:14:01.900Z,1074
2023-04-29T00:15:04.594Z,1072
2023-04-29T00:16:17.968Z,1071
2023-04-29T00:17:30.687Z,1071
2023-04-29T00:18:44.393Z,1073
2023-04-29T00:19:46.886Z,1077
2023-04-29T00:20:59.884Z,1077
2023-04-29T00:22:12.482Z,1075
2023-04-29T00:23:15.870Z,1074
2023-04-29T00:24:38.268Z,1075
2023-04-29T00:25:41.895Z,1075
2023-04-29T00:26:44.566Z,1076
2023-04-29T00:27:57.895Z,1080
2023-04-29T00:29:10.493Z,1080
2023-04-29T00:30:13.857Z,1082
2023-04-29T00:31:26.468Z,1083
2023-04-29T00:32:39.927Z,1084
2023-04-29T00:33:52.614Z,1088
2023-04-29T00:34:55.860Z,1088
2023-04-29T00:36:08.440Z,1087
2023-04-29T00:37:21.882Z,1085
2023-04-29T00:38:24.546Z,1087
2023-04-29T00:39:37.856Z,1088
2023-04-29T00:40:50.449Z,1086
2023-04-29T00:42:03.875Z,1091
2023-04-29T00:43:06.588Z,1097
2023-04-29T00:44:19.853Z,1098
2023-04-29T00:45:32.441Z,1101
2023-04-29T00:46:35.924Z,1105
2023-04-29T00:47:48.708Z,1106
2023-04-29T00:49:02.365Z,1107
2023-04-29T00:50:05.005Z,1110
2023-04-29T00:51:18.391Z,1113
2023-04-29T00:52:30.971Z,1113
2023-04-29T00:53:34.383Z,1112
2023-04-29T00:54:46.944Z,1115
2023-04-29T00:56:00.394Z,1116
2023-04-29T00:57:03.034Z,1121
2023-04-29T00:58:16.403Z,1119
2023-04-29T00:59:29.049Z,1120
2023-04-29T01:00:42.396Z,1123
2023-04-29T01:01:45.089Z,1122
2023-04-29T01:02:58.480Z,1123
2023-04-29T01:04:11.332Z,1125
2023-04-29T01:05:14.869Z,1128
2023-04-29T01:06:27.478Z,1131
2023-04-29T01:07:40.880Z,1132
2023-04-29T01:08:43.550Z,1135
2023-04-29T01:09:56.890Z,1135
2023-04-29T01:11:09.515Z,1137
2023-04-29T01:12:12.887Z,1139
2023-04-29T01:13:25.452Z,1140
2023-04-29T01:14:38.897Z,1141
2023-04-29T01:15:41.582Z,1139
2023-04-29T01:16:54.914Z,1139
2023-04-29T01:18:07.576Z,1139
2023-04-29T01:19:20.911Z,1141
2023-04-29T01:20:23.569Z,1145
2023-04-29T01:21:36.920Z,1147
2023-04-29T01:22:49.528Z,1152
2023-04-29T01:23:52.886Z,1154
2023-04-29T01:25:05.505Z,1156
2023-04-29T01:26:18.918Z,1155
2023-04-29T01:27:21.715Z,1153
2023-04-29T01:28:35.400Z,1152
2023-04-29T01:29:47.996Z,1154
2023-04-29T01:31:01.425Z,1154
2023-04-29T01:32:04.202Z,1154
2023-04-29T01:33:17.381Z,1155
2023-04-29T01:34:30.013Z,1157
2023-04-29T01:35:33.423Z,1158
2023-04-29T01:36:46.034Z,1161
2023-04-29T01:37:59.424Z,1162
2023-04-29T01:39:02.133Z,1164
2023-04-29T01:40:15.371Z,1167
2023-04-29T01:41:28.065Z,1166
2023-04-29T01:42:41.381Z,1169
2023-04-29T01:43:44.120Z,1167
2023-04-29T01:44:57.422Z,1168
2023-04-29T01:46:10.208Z,1167
2023-04-29T01:47:13.910Z,1167
2023-04-29T01:48:26.722Z,1167
2023-04-29T01:49:40.509Z,1167
2023-04-29T01:50:43.256Z,1167
2023-04-29T01:51:57.117Z,1168
2023-04-29T01:53:10.000Z,1168
2023-04-29T01:54:13.383Z,1167
2023-04-29T01:55:25.976Z,1167
2023-04-29T01:56:39.376Z,1166
2023-04-29T01:57:42.018Z,1168
2023-04-29T01:58:55.381Z,1170
2023-04-29T02:00:07.955Z,1170
2023-04-29T02:01:21.557Z,1170
2023-04-29T02:02:24.381Z,1171
2023-04-29T02:03:38.028Z,1173
2023-04-29T02:04:51.021Z,1175
2023-04-29T02:05:54.888Z,1176
2023-04-29T02:07:07.491Z,1179
2023-04-29T02:08:20.915Z,1178
2023-04-29T02:09:23.578Z,1174
2023-04-29T02:10:36.919Z,1175
2023-04-29T02:11:49.523Z,1179
2023-04-29T02:12:52.913Z,1178
2023-04-29T02:14:05.535Z,1178
2023-04-29T02:15:18.921Z,1178
2023-04-29T02:16:21.665Z,1176
2023-04-29T02:17:34.970Z,1177
2023-04-29T02:18:47.777Z,1178
2023-04-29T02:20:01.509Z,1178
2023-04-29T02:21:04.198Z,1181
2023-04-29T02:22:17.902Z,1180
2023-04-29T02:23:30.507Z,1179
2023-04-29T02:24:33.933Z,1182
2023-04-29T02:25:46.559Z,1182
2023-04-29T02:26:59.934Z,1179
2023-04-29T02:28:02.595Z,1178
2023-04-29T02:29:15.904Z,1178
2023-04-29T02:30:28.505Z,1177
2023-04-29T02:31:31.943Z,1178
2023-04-29T02:32:44.691Z,1179
2023-04-29T02:33:58.439Z,1179
2023-04-29T02:35:01.189Z,1178
2023-04-29T02:36:14.411Z,1177
2023-04-29T02:37:27.031Z,1176
2023-04-29T02:38:40.440Z,1177
2023-04-29T02:39:43.173Z,1179
2023-04-29T02:40:56.430Z,1181
2023-04-29T02:42:09.032Z,1183
2023-04-29T02:43:12.414Z,1183
2023-04-29T02:44:24.999Z,1182
2023-04-29T02:45:38.427Z,1181
2023-04-29T02:46:41.100Z,1181
2023-04-29T02:47:54.492Z,1180
2023-04-29T02:49:07.274Z,1181
2023-04-29T02:50:10.938Z,1180
2023-04-29T02:51:23.521Z,1178
2023-04-29T02:52:36.940Z,1182
2023-04-29T02:53:39.641Z,1180
2023-04-29T02:54:52.948Z,1175
2023-04-29T02:56:05.548Z,1178
2023-04-29T02:57:18.915Z,1178
2023-04-29T02:58:21.592Z,1179
2023-04-29T02:59:34.949Z,1178
2023-04-29T03:00:47.557Z,1179
2023-04-29T03:01:50.941Z,1176
2023-04-29T03:03:03.682Z,1172
2023-04-29T03:04:17.535Z,1173
2023-04-29T03:05:20.318Z,1173
2023-04-29T03:06:33.921Z,1172
2023-04-29T03:07:46.533Z,1171
2023-04-29T03:08:49.945Z,1174
2023-04-29T03:10:02.651Z,1173
2023-04-29T03:11:15.937Z,1175
2023-04-29T03:12:28.589Z,1173
2023-04-29T03:13:31.915Z,1174
2023-04-29T03:14:44.531Z,1174
2023-04-29T03:15:57.957Z,1173
2023-04-29T03:17:00.718Z,1173
2023-04-29T03:18:14.483Z,1176
2023-04-29T03:19:27.161Z,1175
2023-04-29T03:20:30.415Z,1174
2023-04-29T03:21:43.002Z,1174
2023-04-29T03:22:56.465Z,1176
2023-04-29T03:23:59.145Z,1176
2023-04-29T03:25:12.439Z,1176
2023-04-29T03:26:25.145Z,1176
2023-04-29T03:27:38.423Z,1176
2023-04-29T03:28:41.106Z,1176
2023-04-29T03:30:13.960Z,1174
2023-04-29T03:31:06.835Z,1172
2023-04-29T03:32:09.594Z,1172
2023-04-29T03:33:22.909Z,1173
2023-04-29T03:34:35.576Z,1174
2023-04-29T03:35:48.933Z,1175
2023-04-29T03:36:51.616Z,1176
2023-04-29T03:38:04.963Z,1177
2023-04-29T03:39:17.553Z,1176
2023-04-29T03:40:20.932Z,1173
2023-04-29T03:41:33.604Z,1172
2023-04-29T03:42:46.924Z,1173
2023-04-29T03:43:49.592Z,1171
2023-04-29T03:45:02.916Z,1169
2023-04-29T03:46:15.597Z,1167
2023-04-29T03:47:29.035Z,1168
2023-04-29T03:48:31.834Z,1170
2023-04-29T03:49:45.410Z,1166
2023-04-29T03:50:58.001Z,1168
2023-04-29T03:52:01.457Z,1170
2023-04-29T03:53:14.060Z,1171
2023-04-29T03:54:27.445Z,1169
2023-04-29T03:55:49.580Z,1170
2023-04-29T03:56:42.949Z,1167
2023-04-29T03:57:56.534Z,1166
2023-04-29T03:59:09.931Z,1164
2023-04-29T04:00:12.609Z,1168
2023-04-29T04:01:25.922Z,1169
2023-04-29T04:02:38.763Z,1170
2023-04-29T04:03:42.622Z,1170
2023-04-29T04:04:55.603Z,1166
2023-04-29T04:06:08.923Z,1164
2023-04-29T04:07:11.615Z,1165
2023-04-29T04:08:25.424Z,1164
2023-04-29T04:09:38.019Z,1167
2023-04-29T04:10:51.463Z,1168
2023-04-29T04:11:54.158Z,1169
2023-04-29T04:13:07.445Z,1168
2023-04-29T04:14:20.074Z,1169
2023-04-29T04:15:23.447Z,1167
2023-04-29T04:16:36.101Z,1168
2023-04-29T04:17:50.017Z,1168
2023-04-29T04:18:52.831Z,1168
2023-04-29T04:20:06.444Z,1167
2023-04-29T04:21:19.121Z,1164
2023-04-29T04:22:22.463Z,1162
2023-04-29T04:23:35.074Z,1163
2023-04-29T04:24:48.420Z,1162
2023-04-29T04:26:01.021Z,1163
2023-04-29T04:27:04.434Z,1162
2023-04-29T04:28:17.061Z,1162
2023-04-29T04:29:30.457Z,1163
2023-04-29T04:30:33.135Z,1161
2023-04-29T04:31:47.286Z,1163
2023-04-29T04:33:00.128Z,1165
2023-04-29T04:34:03.971Z,1164
2023-04-29T04:35:16.590Z,1162
2023-04-29T04:36:39.489Z,1158
2023-04-29T04:37:32.337Z,1156
2023-04-29T04:38:46.003Z,1154
2023-04-29T04:39:58.629Z,1156
2023-04-29T04:41:01.956Z,1156
2023-04-29T04:42:14.524Z,1156
2023-04-29T04:43:27.950Z,1157
2023-04-29T04:44:40.463Z,1156
2023-04-29T04:45:43.982Z,1156
2023-04-29T04:46:56.574Z,1152
2023-04-29T04:48:10.016Z,1150
2023-04-29T04:49:12.615Z,1149
2023-04-29T04:50:26.466Z,1152
2023-04-29T04:51:39.031Z,1154
2023-04-29T04:52:42.470Z,1156
2023-04-29T04:53:54.952Z,1158
2023-04-29T04:55:08.446Z,1156
2023-04-29T04:56:21.768Z,1157
2023-04-29T04:57:24.932Z,1158
2023-04-29T04:58:37.349Z,1157
2023-04-29T04:59:50.590Z,1156
2023-04-29T05:00:53.177Z,1155
2023-04-29T05:02:06.511Z,1153
2023-04-29T05:03:19.058Z,1154
2023-04-29T05:04:22.621Z,1156
2023-04-29T05:05:35.046Z,1155
2023-04-29T05:06:47.960Z,1157
2023-04-29T05:08:00.280Z,1158
2023-04-29T05:09:03.440Z,1157
2023-04-29T05:10:15.771Z,1159
2023-04-29T05:11:28.968Z,1158
2023-04-29T05:12:31.374Z,1160
2023-04-29T05:13:44.442Z,1161
2023-04-29T05:14:56.745Z,1166
2023-04-29T05:16:09.983Z,1168
2023-04-29T05:17:12.511Z,1168
2023-04-29T05:18:25.476Z,1167
2023-04-29T05:19:37.789Z,1169
2023-04-29T05:20:50.954Z,1172
2023-04-29T05:22:23.029Z,1175
2023-04-29T05:23:06.486Z,1178
2023-04-29T05:24:38.459Z,1181
2023-04-29T05:25:21.988Z,1183
2023-04-29T05:26:34.256Z,1190
2023-04-29T05:27:47.489Z,1195
2023-04-29T05:28:59.780Z,1205
2023-04-29T05:30:02.973Z,1219
2023-04-29T05:31:15.323Z,1230
2023-04-29T05:32:28.508Z,1248
2023-04-29T05:33:30.920Z,1272
2023-04-29T05:34:44.040Z,1298
2023-04-29T05:35:56.536Z,1316
2023-04-29T05:37:09.461Z,1333
2023-04-29T05:38:11.863Z,1343
2023-04-29T05:39:24.949Z,1350
2023-04-29T05:40:37.284Z,1356
2023-04-29T05:41:40.490Z,1357
2023-04-29T05:42:52.785Z,1363
2023-04-29T05:44:05.958Z,1364
2023-04-29T05:45:18.240Z,1367
2023-04-29T05:46:21.480Z,1369
2023-04-29T05:47:33.898Z,1371
2023-04-29T05:48:47.029Z,1370
2023-04-29T05:49:49.431Z,1377
2023-04-29T05:51:02.465Z,1381
2023-04-29T05:52:14.866Z,1387
2023-04-29T05:53:28.498Z,1392
2023-04-29T05:54:30.974Z,1394
2023-04-29T05:55:43.964Z,1400
2023-04-29T05:56:56.322Z,1405
2023-04-29T05:58:09.478Z,1409
2023-04-29T05:59:11.928Z,1409
2023-04-29T06:00:24.968Z,1418
2023-04-29T06:01:37.238Z,1443
2023-04-29T06:02:54.811Z,1523
2023-04-29T06:03:51.167Z,1637
2023-04-29T06:05:04.749Z,1592
2023-04-29T06:06:17.484Z,1475
2023-04-29T06:07:21.018Z,1426
2023-04-29T06:08:33.343Z,1381
2023-04-29T06:09:47.027Z,1320
2023-04-29T06:10:59.048Z,1220
2023-04-29T06:12:03.030Z,1084
2023-04-29T06:13:15.389Z,1069
2023-04-29T06:14:28.512Z,1038
2023-04-29T06:15:31.047Z,1022
2023-04-29T06:16:44.014Z,1002
2023-04-29T06:17:56.621Z,986
2023-04-29T06:20:20.822Z,940
2023-04-29T06:21:23.272Z,895
2023-04-29T06:22:45.987Z,895
2023-04-29T06:23:38.578Z,887
2023-04-29T06:24:51.951Z,872
2023-04-29T06:26:04.291Z,856
2023-04-29T06:27:17.461Z,845
2023-04-29T06:28:19.928Z,843
2023-04-29T06:29:32.946Z,839
2023-04-29T06:30:45.440Z,841
2023-04-29T06:31:48.986Z,834
2023-04-29T06:33:01.435Z,820
2023-04-29T06:34:14.959Z,813
2023-04-29T06:35:27.289Z,808
2023-04-29T06:36:49.991Z,807
2023-04-29T06:37:42.539Z,806
2023-04-29T06:38:55.482Z,805
2023-04-29T06:40:07.828Z,802
2023-04-29T06:41:10.918Z,798
2023-04-29T06:42:23.262Z,797
2023-04-29T06:43:36.511Z,796
2023-04-29T06:44:38.957Z,798
2023-04-29T06:45:51.969Z,799
2023-04-29T06:47:04.401Z,800
2023-04-29T06:48:17.442Z,802
2023-04-29T06:49:19.864Z,805
2023-04-29T06:50:53.046Z,804
2023-04-29T06:51:45.685Z,806
2023-04-29T06:52:48.167Z,806
2023-04-29T06:54:01.486Z,805
2023-04-29T06:55:13.868Z,804
2023-04-29T06:56:26.933Z,805
2023-04-29T06:57:29.358Z,808
2023-04-29T06:58:42.451Z,809
2023-04-29T06:59:55.074Z,811
2023-04-29T07:00:58.494Z,811
2023-04-29T07:02:30.853Z,815
2023-04-29T07:03:24.506Z,819
2023-04-29T07:04:36.938Z,824
2023-04-29T07:05:40.505Z,828
2023-04-29T07:06:52.826Z,827
2023-04-29T07:08:05.958Z,826
2023-04-29T07:09:08.401Z,829
2023-04-29T07:10:21.477Z,832
2023-04-29T07:11:33.815Z,833
2023-04-29T07:12:46.945Z,836
2023-04-29T07:13:49.394Z,840
2023-04-29T07:15:02.985Z,838
2023-04-29T07:16:15.316Z,838
2023-04-29T07:17:19.003Z,841
2023-04-29T07:18:31.368Z,842
2023-04-29T07:19:44.436Z,845
2023-04-29T07:20:46.886Z,848
2023-04-29T07:21:59.973Z,850
2023-04-29T07:23:12.313Z,850
2023-04-29T07:24:25.466Z,851
2023-04-29T07:25:27.910Z,854
2023-04-29T07:26:40.985Z,854
2023-04-29T07:27:53.329Z,853
2023-04-29T07:29:06.468Z,854
2023-04-29T07:30:09.102Z,853
2023-04-29T07:31:22.580Z,852
2023-04-29T07:32:35.179Z,852
2023-04-29T07:33:38.526Z,855
2023-04-29T07:34:51.289Z,856
2023-04-29T07:36:04.992Z,856
2023-04-29T07:37:07.410Z,857
2023-04-29T07:38:20.476Z,859
2023-04-29T07:39:33.520Z,860
2023-04-29T07:40:37.761Z,860
2023-04-29T07:41:50.087Z,860
2023-04-29T07:43:03.460Z,860
2023-04-29T07:44:05.892Z,863
2023-04-29T07:45:19.467Z,865
2023-04-29T07:46:31.786Z,865
2023-04-29T07:47:44.998Z,868
2023-04-29T07:48:47.489Z,870
2023-04-29T07:50:00.480Z,870
2023-04-29T07:51:12.808Z,871
2023-04-29T07:52:15.978Z,870
2023-04-29T07:53:28.953Z,871
2023-04-29T07:54:41.975Z,870
2023-04-29T07:55:54.307Z,872
2023-04-29T07:56:57.452Z,873
2023-04-29T07:58:09.750Z,874
2023-04-29T07:59:22.944Z,877
2023-04-29T08:00:25.354Z,878
2023-04-29T08:01:38.467Z,878
2023-04-29T08:02:51.025Z,879
2023-04-29T08:04:04.795Z,877
2023-04-29T08:05:07.726Z,877
2023-04-29T08:06:22.007Z,878
2023-04-29T08:07:34.446Z,878
2023-04-29T08:08:37.488Z,880
2023-04-29T08:09:50.000Z,879
2023-04-29T08:11:03.005Z,878
2023-04-29T08:12:05.482Z,878
2023-04-29T08:13:18.463Z,878
2023-04-29T08:14:30.770Z,879
2023-04-29T08:15:44.005Z,880
2023-04-29T08:16:46.498Z,879
2023-04-29T08:17:59.545Z,879
2023-04-29T08:19:21.588Z,882
2023-04-29T08:20:24.968Z,880
2023-04-29T08:21:27.545Z,881
2023-04-29T08:22:40.513Z,883
2023-04-29T08:23:52.816Z,883
2023-04-29T08:24:55.978Z,887
2023-04-29T08:26:08.240Z,887
2023-04-29T08:27:21.496Z,888
2023-04-29T08:28:33.799Z,889
2023-04-29T08:29:37.006Z,892
2023-04-29T08:30:49.307Z,893
2023-04-29T08:32:02.584Z,893
2023-04-29T08:33:05.153Z,894
2023-04-29T08:34:18.508Z,896
2023-04-29T08:35:30.790Z,896
2023-04-29T08:36:44.006Z,897
2023-04-29T08:37:46.423Z,897
2023-04-29T08:38:59.985Z,897
2023-04-29T08:40:12.309Z,896
2023-04-29T08:41:15.486Z,896
2023-04-29T08:42:27.784Z,895
2023-04-29T08:43:41.084Z,894
2023-04-29T08:44:53.595Z,894
2023-04-29T08:45:56.985Z,893
2023-04-29T08:47:09.534Z,892
2023-04-29T08:48:23.041Z,892
2023-04-29T08:49:25.792Z,891
2023-04-29T08:50:39.005Z,892
2023-04-29T08:51:52.323Z,895
2023-04-29T08:52:55.473Z,895
2023-04-29T08:54:07.802Z,894
2023-04-29T08:55:21.016Z,894
2023-04-29T08:56:33.330Z,895
2023-04-29T08:57:36.489Z,896
2023-04-29T08:58:48.799Z,895
2023-04-29T09:00:02.247Z,898
2023-04-29T09:01:04.866Z,898
2023-04-29T09:02:18.476Z,896
2023-04-29T09:03:30.935Z,896
2023-04-29T09:04:44.037Z,897
2023-04-29T09:05:46.486Z,896
2023-04-29T09:06:59.515Z,894
2023-04-29T09:08:11.878Z,897
2023-04-29T09:09:14.996Z,898
2023-04-29T09:10:27.278Z,897
2023-04-29T09:11:40.503Z,898
2023-04-29T09:12:52.804Z,896
2023-04-29T09:13:56.001Z,896
2023-04-29T09:15:08.260Z,896
2023-04-29T09:16:21.617Z,896
2023-04-29T09:17:24.180Z,896
2023-04-29T09:18:37.490Z,895
2023-04-29T09:19:49.844Z,897
2023-04-29T09:21:02.993Z,897
2023-04-29T09:22:05.380Z,898
2023-04-29T09:23:18.507Z,897
2023-04-29T09:24:30.850Z,897
2023-04-29T09:25:44.021Z,899
2023-04-29T09:26:46.437Z,901
2023-04-29T09:27:59.502Z,900
2023-04-29T09:29:11.858Z,901
2023-04-29T09:30:14.981Z,901
2023-04-29T09:31:27.374Z,900
2023-04-29T09:32:40.524Z,897
2023-04-29T09:33:52.890Z,896
2023-04-29T09:34:56.045Z,898
2023-04-29T09:36:08.393Z,899
2023-04-29T09:37:21.528Z,899
2023-04-29T09:38:24.370Z,899
2023-04-29T09:39:37.528Z,900
2023-04-29T09:40:58.820Z,900
2023-04-29T09:42:03.043Z,902
2023-04-29T09:43:05.456Z,904
2023-04-29T09:44:18.538Z,905
2023-04-29T09:45:30.836Z,906
2023-04-29T09:46:34.042Z,904
2023-04-29T09:47:46.527Z,901
2023-04-29T09:48:59.998Z,903
2023-04-29T09:50:02.373Z,905
2023-04-29T09:51:16.131Z,906
2023-04-29T09:52:28.590Z,907
2023-04-29T09:53:41.524Z,906
2023-04-29T09:54:43.995Z,907
2023-04-29T09:55:57.013Z,907
2023-04-29T09:57:09.274Z,909
2023-04-29T09:58:12.518Z,911
2023-04-29T09:59:24.741Z,910
2023-04-29T10:00:37.993Z,914
2023-04-29T10:01:50.384Z,913
2023-04-29T10:02:53.614Z,910
2023-04-29T10:04:06.088Z,909
2023-04-29T10:05:19.514Z,911
2023-04-29T10:06:22.060Z,909
2023-04-29T10:07:35.178Z,909
2023-04-29T10:08:48.181Z,911
2023-04-29T10:10:01.010Z,911
2023-04-29T10:11:03.400Z,908
2023-04-29T10:12:16.500Z,906
2023-04-29T10:13:28.787Z,904
2023-04-29T10:14:32.000Z,904
2023-04-29T10:15:44.245Z,903
2023-04-29T10:16:57.489Z,903
2023-04-29T10:18:09.852Z,903
2023-04-29T10:19:13.049Z,902
2023-04-29T10:20:25.475Z,903
2023-04-29T10:21:38.533Z,901
2023-04-29T10:22:40.923Z,900
2023-04-29T10:23:54.471Z,900
2023-04-29T10:25:06.780Z,899
2023-04-29T10:26:19.983Z,897
2023-04-29T10:27:23.763Z,897
2023-04-29T10:28:38.559Z,898
2023-04-29T10:29:41.186Z,899
2023-04-29T10:30:54.016Z,899
2023-04-29T10:32:06.463Z,898
2023-04-29T10:33:19.542Z,897
2023-04-29T10:34:22.099Z,894
2023-04-29T10:35:35.840Z,894
2023-04-29T10:36:48.188Z,893
2023-04-29T10:38:01.011Z,891
2023-04-29T10:39:03.399Z,888
2023-04-29T10:40:16.578Z,887
2023-04-29T10:41:19.099Z,888
2023-04-29T10:42:32.004Z,889
2023-04-29T10:43:44.208Z,891
2023-04-29T10:44:57.020Z,890
2023-04-29T10:46:18.764Z,889
2023-04-29T10:47:11.991Z,887
2023-04-29T10:48:24.258Z,889
2023-04-29T10:49:37.523Z,888
2023-04-29T10:50:39.862Z,887
2023-04-29T10:51:53.021Z,886
2023-04-29T10:53:05.232Z,889
2023-04-29T10:54:18.540Z,890
2023-04-29T10:55:20.928Z,891
2023-04-29T10:56:34.017Z,889
2023-04-29T10:57:46.349Z,889
2023-04-29T10:58:49.503Z,888
2023-04-29T11:00:01.765Z,889
2023-04-29T11:01:24.550Z,890
2023-04-29T11:02:27.149Z,891
2023-04-29T11:03:30.698Z,890
2023-04-29T11:04:43.089Z,889
2023-04-29T11:05:56.043Z,887
2023-04-29T11:06:58.336Z,887
2023-04-29T11:08:11.545Z,887
2023-04-29T11:09:23.770Z,884
2023-04-29T11:10:37.069Z,883
2023-04-29T11:11:39.498Z,884
2023-04-29T11:12:52.547Z,882
2023-04-29T11:14:04.814Z,883
2023-04-29T11:15:08.032Z,882
2023-04-29T11:16:20.344Z,883
2023-04-29T11:17:33.584Z,884
2023-04-29T11:18:36.072Z,884
2023-04-29T11:19:49.012Z,882
2023-04-29T11:21:01.185Z,882
2023-04-29T11:22:14.059Z,883
2023-04-29T11:23:16.448Z,884
2023-04-29T11:24:29.551Z,881
2023-04-29T11:25:41.834Z,881
2023-04-29T11:26:55.045Z,881
2023-04-29T11:27:57.429Z,880
2023-04-29T11:29:10.518Z,879
2023-04-29T11:30:22.712Z,876
2023-04-29T11:31:28.804Z,877
2023-04-29T11:32:41.531Z,875
2023-04-29T11:33:54.537Z,876
2023-04-29T11:34:56.898Z,873
2023-04-29T11:36:10.044Z,871
2023-04-29T11:37:22.397Z,870
2023-04-29T11:38:25.543Z,871
2023-04-29T11:39:37.813Z,872
2023-04-29T11:41:20.632Z,871
2023-04-29T11:42:03.314Z,870
2023-04-29T11:43:05.719Z,868
2023-04-29T11:44:19.009Z,867
2023-04-29T11:45:31.338Z,869
2023-04-29T11:46:34.600Z,870
2023-04-29T11:47:47.044Z,869
2023-04-29T11:49:10.043Z,867
2023-04-29T11:50:12.436Z,865
2023-04-29T11:51:15.581Z,865
2023-04-29T11:52:37.660Z,867
2023-04-29T11:53:40.574Z,865
2023-04-29T11:54:42.860Z,867
2023-04-29T11:55:56.106Z,868
2023-04-29T11:57:18.283Z,867
2023-04-29T11:58:22.074Z,867
2023-04-29T11:59:24.435Z,866
2023-04-29T12:00:37.547Z,866
2023-04-29T12:01:49.800Z,866
2023-04-29T12:03:03.220Z,866
2023-04-29T12:04:05.879Z,866
2023-04-29T12:05:19.554Z,867
2023-04-29T12:06:22.386Z,867
2023-04-29T12:07:35.575Z,867
2023-04-29T12:08:47.837Z,869
2023-04-29T12:10:01.109Z,870
2023-04-29T12:11:13.217Z,870
2023-04-29T12:12:16.581Z,870
2023-04-29T12:13:28.841Z,871
2023-04-29T12:14:42.082Z,870
2023-04-29T12:15:44.515Z,869
2023-04-29T12:16:57.547Z,868
2023-04-29T12:18:09.798Z,865
2023-04-29T12:19:13.062Z,865
2023-04-29T12:20:25.289Z,864
2023-04-29T12:21:38.610Z,861
2023-04-29T12:22:50.484Z,862
2023-04-29T12:23:53.590Z,861
2023-04-29T12:25:05.817Z,864
2023-04-29T12:26:18.560Z,862
2023-04-29T12:27:20.927Z,861
2023-04-29T12:28:34.071Z,859
2023-04-29T12:29:46.309Z,858
2023-04-29T12:30:59.050Z,857
2023-04-29T12:32:01.466Z,857
2023-04-29T12:33:14.648Z,857
2023-04-29T12:34:36.703Z,854
2023-04-29T12:35:40.058Z,855
2023-04-29T12:36:52.274Z,855
2023-04-29T12:37:55.610Z,856
2023-04-29T12:39:07.820Z,855
2023-04-29T12:40:11.083Z,854
2023-04-29T12:41:23.382Z,852
2023-04-29T12:42:36.105Z,855
2023-04-29T12:43:48.274Z,855
2023-04-29T12:44:51.852Z,855
2023-04-29T12:46:04.304Z,855
2023-04-29T12:47:17.196Z,854
2023-04-29T12:48:29.869Z,854
2023-04-29T12:49:44.118Z,854
2023-04-29T12:50:55.897Z,855
2023-04-29T12:51:49.124Z,855
2023-04-29T12:53:01.355Z,855
2023-04-29T12:54:14.582Z,856
2023-04-29T12:55:26.807Z,852
2023-04-29T12:56:30.608Z,852
2023-04-29T12:57:42.777Z,853
2023-04-29T12:58:56.077Z,850
2023-04-29T12:59:58.437Z,849
2023-04-29T13:01:31.145Z,847
2023-04-29T13:02:23.824Z,847
2023-04-29T13:03:47.168Z,847
2023-04-29T13:04:40.330Z,846
2023-04-29T13:05:53.610Z,844
2023-04-29T13:07:06.026Z,844
2023-04-29T13:08:09.743Z,846
2023-04-29T13:09:22.096Z,843
2023-04-29T13:10:35.244Z,845
2023-04-29T13:11:37.605Z,845
2023-04-29T13:12:50.622Z,841
2023-04-29T13:14:02.850Z,839
2023-04-29T13:15:16.336Z,840
2023-04-29T13:16:18.722Z,841
2023-04-29T13:17:32.126Z,839
2023-04-29T13:18:53.405Z,837
2023-04-29T13:19:51.815Z,839
2023-04-29T13:21:04.685Z,840
2023-04-29T13:22:08.426Z,839
2023-04-29T13:23:20.653Z,839
2023-04-29T13:24:33.620Z,836
2023-04-29T13:25:35.961Z,838
2023-04-29T13:26:52.255Z,836
2023-04-29T13:27:55.450Z,838
2023-04-29T13:29:38.100Z,835
2023-04-29T13:30:20.769Z,832
2023-04-29T13:31:33.118Z,833
2023-04-29T13:32:43.732Z,832
2023-04-29T13:33:48.611Z,832
2023-04-29T13:35:01.606Z,832
2023-04-29T13:36:03.930Z,834
2023-04-29T13:37:17.083Z,835
2023-04-29T13:38:29.386Z,836
2023-04-29T13:39:45.741Z,838
2023-04-29T13:40:51.512Z,838
2023-04-29T13:41:58.671Z,840
2023-04-29T13:43:13.763Z,838
2023-04-29T13:44:29.640Z,840
2023-04-29T13:45:29.067Z,841
2023-04-29T13:46:42.523Z,843
2023-04-29T13:48:03.856Z,844
2023-04-29T13:51:45.938Z,844
2023-04-29T13:53:18.157Z,843
2023-04-29T13:54:25.761Z,844
2023-04-29T13:57:55.188Z,844
2023-04-29T13:58:52.153Z,847
2023-04-29T13:59:40.238Z,848
2023-04-29T14:04:07.521Z,850
2023-04-29T14:05:20.782Z,851
2023-04-29T14:06:23.209Z,852
2023-04-29T14:07:36.592Z,854
2023-04-29T14:08:48.697Z,853
2023-04-29T14:09:51.591Z,854
2023-04-29T14:11:03.709Z,856
2023-04-29T14:12:16.648Z,856
2023-04-29T14:13:28.943Z,857
2023-04-29T14:14:41.620Z,862
2023-04-29T14:15:43.941Z,867
2023-04-29T14:16:57.092Z,875
2023-04-29T14:17:59.438Z,892
2023-04-29T14:19:14.224Z,918
2023-04-29T14:20:26.420Z,925
2023-04-29T14:21:39.618Z,932
2023-04-29T14:22:41.944Z,935
2023-04-29T14:23:55.452Z,940
2023-04-29T14:25:17.126Z,954
2023-04-29T14:26:27.173Z,956
2023-04-29T14:27:20.716Z,964
2023-04-29T14:28:44.092Z,970
2023-04-29T14:29:46.396Z,968
2023-04-29T14:30:49.616Z,967
2023-04-29T14:32:01.812Z,971
2023-04-29T14:33:14.592Z,973
2023-04-29T14:34:26.778Z,976
2023-04-29T14:35:30.109Z,979
2023-04-29T14:36:42.640Z,981
2023-04-29T14:37:56.117Z,984
2023-04-29T14:38:58.453Z,988
2023-04-29T14:40:11.760Z,985
2023-04-29T14:41:23.989Z,987
2023-04-29T14:42:46.617Z,989
2023-04-29T14:43:39.071Z,991
2023-04-29T14:44:52.298Z,994
2023-04-29T14:46:04.711Z,997
2023-04-29T14:47:07.625Z,998
2023-04-29T14:48:20.107Z,1002
2023-04-29T14:49:33.242Z,1003
2023-04-29T14:50:45.472Z,1007
2023-04-29T14:51:48.643Z,1012
2023-04-29T14:53:00.787Z,1014
2023-04-29T14:54:13.610Z,1017
2023-04-29T14:55:15.972Z,1020
2023-04-29T14:56:29.133Z,1025
2023-04-29T14:57:51.131Z,1032
2023-04-29T14:58:54.149Z,1038
2023-04-29T15:00:45.785Z,1041
2023-04-29T15:01:09.672Z,1044
2023-04-29T15:02:21.874Z,1050
2023-04-29T15:03:59.066Z,1055
2023-04-29T15:04:51.521Z,1062
2023-04-29T15:05:44.050Z,1071
2023-04-29T15:06:57.107Z,1082
2023-04-29T15:08:09.282Z,1083
2023-04-29T15:09:22.144Z,1085
2023-04-29T15:10:24.452Z,1093
2023-04-29T15:11:37.660Z,1099
2023-04-29T15:12:49.825Z,1104
2023-04-29T15:14:02.661Z,1111
2023-04-29T15:15:04.900Z,1115
2023-04-29T15:16:17.664Z,1118
2023-04-29T15:17:40.086Z,1123
2023-04-29T15:18:33.625Z,1131
2023-04-29T15:19:45.843Z,1136
2023-04-29T15:20:58.616Z,1143
2023-04-29T15:22:10.787Z,1148
2023-04-29T15:23:13.636Z,1150
2023-04-29T15:24:25.795Z,1156
2023-04-29T15:25:38.660Z,1161
2023-04-29T15:26:40.892Z,1163
2023-04-29T15:27:53.684Z,1165
2023-04-29T15:29:05.795Z,1171
2023-04-29T15:30:18.632Z,1175
2023-04-29T15:31:21.816Z,1178
2023-04-29T15:32:36.165Z,1185
2023-04-29T15:33:38.601Z,1190
2023-04-29T15:34:51.641Z,1194
2023-04-29T15:36:03.878Z,1196
2023-04-29T15:37:17.164Z,1198
2023-04-29T15:38:19.446Z,1203
2023-04-29T15:39:32.619Z,1207
2023-04-29T15:40:44.803Z,1209
2023-04-29T15:41:48.128Z,1216
2023-04-29T15:43:00.336Z,1220
2023-04-29T15:44:13.148Z,1222
2023-04-29T15:45:15.459Z,1227
2023-04-29T15:46:28.635Z,1230
2023-04-29T15:47:40.875Z,1232
2023-04-29T15:48:53.651Z,1231
2023-04-29T15:50:05.742Z,1235
2023-04-29T15:51:08.675Z,1243
2023-04-29T15:52:20.855Z,1248
2023-04-29T15:53:24.145Z,1254
2023-04-29T15:54:55.974Z,1259
2023-04-29T15:55:49.163Z,1265